Heat Index SAI AWOS Graphical Display Untitled Document
Bertrand Chaffee Hospital Heliport (2NK6) Springville, New York, USA
140
06:59
24/10/2014
00
N/A
N/A
30.01
N/A
1420
41(F), 5(C)
39(F), 4(C)
41 F
93%
CLR
10
N/A
0"
N/A
06:59 zulu Wind Calm, Altimeter 30.01
METAR K2NK6 240659Z AUTO 00000KT 10SM CLR 05/04 A3001 A02 P0000
METAR:
FAA Disclaimer--Advisory Use ONLY, not for flight info--
INFO:
Wind Direction:
Wind Speed:
Wind Gust:
Wind Variable:
Altimeter:
Dens Alt:
Elev:
Temp:
Dwpt:
Wind Chill
Rel Humidity:
Ceiling:
Visibility:
Prsnt Wea:
PCPN:
Remarks:
How to read the WebPage